Time;durP1;ratioP1;P1;durP2;ratioP2;P2;SDS_P1;SDS_P2;PMS_P1;PMS_P2;Temp;Humidity;BMP_temperature;BMP_pressure;BME280_temperature;BME280_humidity;BME280_pressure;Samples;Min_cycle;Max_cycle;Signal;HPM_P1;HPM_P2
2022/04/06 00:02:07;;;;;;;10.63;5.20;;;3.60;99.90;;;;;;10305441;28;20197;-83
2022/04/06 00:07:28;;;;;;;11.10;5.50;;;3.60;99.90;;;;;;10328360;28;20255;-84
2022/04/06 00:12:50;;;;;;;8.97;4.77;;;3.60;99.90;;;;;;10332181;28;20419;-83
2022/04/06 00:18:11;;;;;;;8.90;4.57;;;3.60;99.90;;;;;;10385140;28;20196;-84
2022/04/06 00:23:32;;;;;;;8.13;4.10;;;3.60;99.90;;;;;;10330422;28;20205;-84
2022/04/06 00:28:54;;;;;;;8.17;4.50;;;3.60;99.90;;;;;;10330430;28;20227;-83
2022/04/06 00:34:15;;;;;;;8.70;3.93;;;3.70;99.90;;;;;;10330086;28;20229;-84
2022/04/06 00:39:36;;;;;;;8.33;4.33;;;3.70;99.90;;;;;;10343435;28;20431;-83
2022/04/06 00:44:58;;;;;;;6.30;4.03;;;3.80;99.90;;;;;;10327536;28;20422;-82
2022/04/06 00:50:21;;;;;;;5.77;3.77;;;3.80;99.90;;;;;;10329590;28;20704;-84
2022/04/06 00:55:42;;;;;;;7.57;4.67;;;3.80;99.90;;;;;;10342236;28;20394;-84
2022/04/06 01:01:03;;;;;;;10.17;3.90;;;3.90;99.90;;;;;;10342658;28;20197;-84
2022/04/06 01:06:25;;;;;;;4.83;3.30;;;3.80;99.90;;;;;;10330402;28;20208;-85
2022/04/06 01:11:48;;;;;;;5.13;3.47;;;3.90;99.90;;;;;;10325954;28;20204;-83
2022/04/06 01:17:09;;;;;;;6.57;3.60;;;3.90;99.90;;;;;;10327331;28;20194;-84
2022/04/06 01:22:31;;;;;;;6.53;3.40;;;3.90;99.90;;;;;;10376871;28;20240;-81
2022/04/06 01:27:52;;;;;;;4.53;3.27;;;3.90;99.90;;;;;;10382388;28;20232;-84
2022/04/06 01:33:14;;;;;;;6.87;3.50;;;3.80;99.90;;;;;;10363294;28;20232;-84
2022/04/06 01:38:35;;;;;;;6.10;3.30;;;3.70;99.90;;;;;;10341520;28;20254;-84
2022/04/06 01:43:57;;;;;;;5.17;3.20;;;3.70;99.90;;;;;;10354848;28;20240;-84
2022/04/06 01:55:02;;;;;;;6.63;3.70;;;3.60;99.90;;;;;;10354910;28;20251;-84
2022/04/06 02:00:23;;;;;;;6.40;3.03;;;3.60;99.90;;;;;;10340781;28;20224;-85
2022/04/06 02:05:46;;;;;;;7.60;3.23;;;3.50;99.90;;;;;;10318261;28;20292;-85
2022/04/06 02:11:07;;;;;;;3.13;2.27;;;3.40;99.90;;;;;;10370072;28;20260;-81
2022/04/06 02:16:28;;;;;;;5.80;2.60;;;3.30;99.90;;;;;;10341062;28;20246;-83
2022/04/06 02:21:50;;;;;;;4.87;2.70;;;3.30;99.90;;;;;;10364108;28;20193;-84
2022/04/06 02:27:11;;;;;;;4.60;3.07;;;3.20;99.90;;;;;;10377385;28;20220;-81
2022/04/06 02:32:32;;;;;;;3.67;2.67;;;3.20;99.90;;;;;;10363597;28;20524;-83
2022/04/06 02:37:53;;;;;;;3.30;2.80;;;3.20;99.90;;;;;;10360566;28;20212;-82
2022/04/06 02:43:14;;;;;;;8.63;4.20;;;3.20;99.90;;;;;;10347721;28;20244;-84
2022/04/06 02:48:36;;;;;;;7.70;4.17;;;3.10;99.90;;;;;;10347954;28;20227;-82
2022/04/06 02:53:57;;;;;;;7.20;4.83;;;3.20;99.90;;;;;;10361663;28;20429;-83
2022/04/06 02:59:19;;;;;;;7.87;4.57;;;3.10;99.90;;;;;;10347371;28;20207;-84
2022/04/06 03:04:40;;;;;;;7.40;4.00;;;3.10;99.90;;;;;;10360222;28;20231;-83
2022/04/06 03:10:01;;;;;;;15.47;8.80;;;3.10;99.90;;;;;;10330860;28;20202;-83
2022/04/06 03:15:23;;;;;;;16.80;10.00;;;3.10;99.90;;;;;;10331014;28;20233;-85
2022/04/06 03:20:44;;;;;;;15.33;9.10;;;3.10;99.90;;;;;;10340147;28;20203;-85
2022/04/06 03:26:07;;;;;;;12.63;7.47;;;3.10;99.90;;;;;;10370323;28;20231;-83
2022/04/06 03:31:28;;;;;;;8.23;5.70;;;3.10;99.90;;;;;;10384013;28;20201;-83
2022/04/06 03:36:49;;;;;;;13.47;6.37;;;3.10;99.90;;;;;;10353580;28;20228;-83
2022/04/06 03:42:11;;;;;;;11.37;6.77;;;3.10;99.90;;;;;;10347238;28;20465;-84
2022/04/06 03:47:34;;;;;;;11.33;5.83;;;3.10;99.90;;;;;;10332086;28;20201;-82
2022/04/06 03:52:55;;;;;;;7.33;4.87;;;3.10;99.90;;;;;;10315577;28;20239;-82
2022/04/06 03:58:16;;;;;;;8.43;4.67;;;3.10;99.90;;;;;;10329070;28;20237;-84
2022/04/06 04:03:38;;;;;;;12.93;5.90;;;3.20;99.90;;;;;;10344933;28;20205;-83
2022/04/06 04:08:59;;;;;;;9.03;6.00;;;3.20;99.90;;;;;;10331172;28;20232;-83
2022/04/06 04:14:20;;;;;;;30.33;11.70;;;3.20;99.90;;;;;;10328186;28;20228;-83
2022/04/06 04:19:42;;;;;;;27.23;10.53;;;3.20;99.90;;;;;;10362608;28;20192;-82
2022/04/06 04:25:06;;;;;;;13.20;7.93;;;3.20;99.90;;;;;;10369303;28;20228;-83
2022/04/06 04:30:28;;;;;;;14.97;9.80;;;3.30;99.90;;;;;;10368460;28;20472;-83
2022/04/06 04:35:50;;;;;;;13.73;9.53;;;3.30;99.90;;;;;;10343225;28;20230;-83
2022/04/06 04:41:12;;;;;;;18.00;14.67;;;3.40;99.90;;;;;;10342577;28;20245;-83
2022/04/06 04:46:33;;;;;;;43.10;22.43;;;3.30;99.90;;;;;;10314010;28;20524;-83
2022/04/06 04:51:55;;;;;;;42.13;27.73;;;3.30;99.90;;;;;;10326525;28;20207;-84
2022/04/06 04:57:16;;;;;;;20.47;13.20;;;3.30;99.90;;;;;;10343248;28;20221;-84
2022/04/06 05:02:38;;;;;;;19.93;11.43;;;3.30;99.90;;;;;;10326197;28;20189;-84
2022/04/06 05:07:59;;;;;;;13.53;9.77;;;3.50;99.90;;;;;;10324084;28;20205;-84
2022/04/06 05:13:21;;;;;;;16.90;10.20;;;3.50;99.90;;;;;;10345422;28;20214;-82
2022/04/06 05:18:42;;;;;;;34.70;17.23;;;3.50;99.90;;;;;;10319656;28;20200;-84
2022/04/06 05:24:04;;;;;;;18.23;10.40;;;3.60;99.90;;;;;;10366544;28;20389;-83
2022/04/06 05:29:27;;;;;;;24.47;11.40;;;3.60;99.90;;;;;;10382581;28;20203;-83
2022/04/06 05:34:48;;;;;;;14.10;8.00;;;3.60;99.90;;;;;;10344432;28;20303;-84
2022/04/06 05:40:11;;;;;;;11.00;7.63;;;3.70;99.90;;;;;;10341505;28;20514;-83
2022/04/06 05:45:33;;;;;;;12.63;8.53;;;3.70;99.90;;;;;;10311636;28;20238;-81
2022/04/06 05:50:56;;;;;;;15.07;8.83;;;3.70;99.90;;;;;;10328065;28;20515;-83
2022/04/06 05:56:18;;;;;;;20.67;15.17;;;3.80;99.90;;;;;;10311752;28;20249;-84
2022/04/06 06:01:39;;;;;;;22.23;18.47;;;3.90;99.90;;;;;;10311607;28;20204;-83
2022/04/06 06:07:01;;;;;;;18.93;12.47;;;3.90;99.90;;;;;;10330968;28;20244;-82
2022/04/06 06:12:22;;;;;;;25.87;14.73;;;3.90;99.90;;;;;;10356443;28;20194;-83
2022/04/06 06:17:44;;;;;;;21.20;12.30;;;4.00;99.90;;;;;;10337811;28;20207;-83
2022/04/06 06:23:05;;;;;;;21.10;12.97;;;4.20;99.90;;;;;;10364412;28;20291;-83
2022/04/06 06:28:27;;;;;;;13.93;9.00;;;4.20;99.90;;;;;;10330142;28;20228;-82
2022/04/06 06:33:49;;;;;;;10.33;6.87;;;4.10;99.90;;;;;;10310818;28;20279;-82
2022/04/06 06:39:10;;;;;;;10.63;7.40;;;4.10;99.90;;;;;;10340404;28;20244;-81
2022/04/06 06:44:32;;;;;;;12.47;7.77;;;4.10;99.90;;;;;;10299761;28;20235;-82
2022/04/06 06:49:53;;;;;;;31.63;15.77;;;4.20;99.90;;;;;;10299421;28;20253;-83
2022/04/06 06:55:18;;;;;;;39.63;19.63;;;4.20;99.90;;;;;;10327779;28;20227;-84
2022/04/06 07:00:40;;;;;;;12.83;7.90;;;4.20;99.90;;;;;;10350814;28;20199;-83
2022/04/06 07:06:02;;;;;;;16.20;9.47;;;4.20;99.90;;;;;;10301980;28;20217;-83
2022/04/06 07:11:23;;;;;;;18.87;11.30;;;4.10;99.90;;;;;;10335482;28;20186;-83
2022/04/06 07:16:44;;;;;;;14.90;9.77;;;4.10;99.90;;;;;;10314924;28;20226;-82
2022/04/06 07:22:06;;;;;;;9.77;6.43;;;4.20;99.90;;;;;;10271558;28;20234;-85
2022/04/06 07:27:34;;;;;;;14.77;9.93;;;4.10;99.90;;;;;;10302145;28;20225;-83
2022/04/06 07:32:58;;;;;;;12.30;8.33;;;4.30;99.90;;;;;;10288933;28;20222;-85
2022/04/06 07:38:19;;;;;;;14.70;9.07;;;4.30;99.90;;;;;;10314460;28;20252;-85
2022/04/06 07:43:40;;;;;;;12.53;7.13;;;4.20;99.90;;;;;;10364276;28;20608;-86
2022/04/06 07:49:02;;;;;;;11.10;7.23;;;4.20;99.90;;;;;;10365873;28;20198;-86
2022/04/06 07:54:23;;;;;;;18.47;9.47;;;4.20;99.90;;;;;;10358773;28;20439;-85
2022/04/06 07:59:44;;;;;;;11.17;6.70;;;4.30;99.90;;;;;;10336866;28;20293;-86
2022/04/06 08:05:09;;;;;;;11.50;7.60;;;4.30;99.90;;;;;;10323775;28;20224;-83
2022/04/06 08:10:30;;;;;;;9.40;5.67;;;4.20;99.90;;;;;;10344937;28;20209;-86
2022/04/06 08:15:53;;;;;;;8.63;6.37;;;4.20;99.90;;;;;;10340368;28;20225;-84
2022/04/06 08:21:16;;;;;;;15.27;7.70;;;4.10;99.90;;;;;;10340241;28;20240;-85
2022/04/06 08:26:37;;;;;;;63.33;25.53;;;4.20;99.90;;;;;;10340617;28;20206;-83
2022/04/06 08:31:58;;;;;;;15.97;8.60;;;4.40;99.90;;;;;;10310152;28;20508;-87
2022/04/06 08:37:19;;;;;;;15.60;10.73;;;4.60;99.90;;;;;;10310168;28;20531;-79
2022/04/06 08:42:41;;;;;;;11.47;7.43;;;4.70;99.90;;;;;;10321809;28;20263;-88
2022/04/06 08:48:08;;;;;;;9.27;6.73;;;4.70;99.90;;;;;;10323038;28;20219;-85
2022/04/06 08:53:30;;;;;;;12.57;7.60;;;4.80;99.90;;;;;;10322224;28;20245;-82
2022/04/06 08:58:51;;;;;;;26.07;14.53;;;4.80;99.90;;;;;;10338339;28;20205;-87
2022/04/06 09:04:13;;;;;;;19.53;9.33;;;4.80;99.90;;;;;;10339147;28;20217;-80
2022/04/06 09:09:53;;;;;;;20.80;9.80;;;4.60;99.90;;;;;;10302639;28;20217;-90
2022/04/06 09:15:15;;;;;;;21.60;10.07;;;4.70;99.90;;;;;;10307664;28;20460;-81
2022/04/06 09:20:37;;;;;;;18.17;11.27;;;4.50;99.90;;;;;;10348223;28;20292;-84
2022/04/06 09:26:13;;;;;;;14.83;8.30;;;4.70;99.90;;;;;;10323956;28;20246;-83
2022/04/06 09:31:40;;;;;;;14.10;8.10;;;4.60;99.90;;;;;;10347247;28;20284;-79
2022/04/06 09:37:28;;;;;;;25.20;11.83;;;4.60;99.90;;;;;;10348724;28;20240;-87
2022/04/06 09:42:52;;;;;;;53.23;26.53;;;4.70;99.90;;;;;;10320368;28;20315;-85
2022/04/06 09:48:13;;;;;;;26.37;14.50;;;4.50;99.90;;;;;;10307179;28;20209;-86
2022/04/06 09:53:36;;;;;;;30.40;18.43;;;4.40;99.90;;;;;;10322728;28;20275;-81
2022/04/06 09:58:59;;;;;;;16.30;9.60;;;4.50;99.90;;;;;;10350658;28;20272;-83
2022/04/06 10:04:24;;;;;;;12.27;7.83;;;4.60;99.90;;;;;;10319917;28;20225;-84
2022/04/06 10:09:46;;;;;;;15.00;8.13;;;4.60;99.90;;;;;;10321292;28;20495;-82
2022/04/06 10:15:07;;;;;;;21.93;10.00;;;4.60;99.90;;;;;;10318949;28;20546;-79
2022/04/06 10:20:31;;;;;;;14.53;7.63;;;4.60;99.90;;;;;;10331182;28;20205;-81
2022/04/06 10:26:04;;;;;;;21.03;10.10;;;4.70;99.90;;;;;;10311383;28;20206;-78
2022/04/06 10:31:29;;;;;;;27.57;17.73;;;4.70;99.90;;;;;;10363421;28;20206;-79
2022/04/06 10:37:12;;;;;;;10.63;6.77;;;4.70;99.90;;;;;;10327337;28;20229;-88
2022/04/06 10:42:34;;;;;;;16.23;10.10;;;4.70;99.90;;;;;;10339710;28;20260;-81
2022/04/06 10:48:11;;;;;;;15.13;9.03;;;4.70;99.90;;;;;;10342995;28;20204;-85
2022/04/06 10:53:33;;;;;;;9.03;5.20;;;4.90;99.90;;;;;;10343248;28;20225;-79
2022/04/06 10:58:57;;;;;;;7.13;5.33;;;5.00;99.90;;;;;;10356125;28;20224;-81
2022/04/06 11:04:20;;;;;;;8.00;5.73;;;5.10;99.90;;;;;;10341962;28;20225;-82
2022/04/06 11:15:32;;;;;;;9.77;7.67;;;5.10;99.90;;;;;;10360334;28;20233;-81
2022/04/06 11:21:01;;;;;;;30.33;17.30;;;5.00;99.90;;;;;;10350949;28;20372;-80
2022/04/06 11:26:24;;;;;;;29.60;16.77;;;5.20;99.90;;;;;;10340754;28;20213;-85
2022/04/06 11:31:56;;;;;;;24.20;12.60;;;5.20;99.90;;;;;;10370106;28;20198;-82
2022/04/06 11:37:18;;;;;;;20.83;14.20;;;5.20;99.90;;;;;;10336497;28;20226;-83
2022/04/06 11:42:39;;;;;;;16.17;11.20;;;5.30;99.90;;;;;;10340738;28;20292;-86
2022/04/06 11:48:12;;;;;;;16.17;9.77;;;5.30;99.90;;;;;;10355904;28;20566;-84
2022/04/06 11:53:35;;;;;;;18.37;12.40;;;5.40;99.90;;;;;;10355183;28;20254;-83
2022/04/06 11:58:57;;;;;;;15.93;10.63;;;5.60;99.90;;;;;;10341788;28;20224;-86
2022/04/06 12:04:23;;;;;;;13.53;9.93;;;5.80;99.90;;;;;;10342626;28;20215;-84
2022/04/06 12:09:45;;;;;;;13.33;10.00;;;5.90;99.90;;;;;;10351985;28;20386;-86
2022/04/06 12:15:10;;;;;;;39.87;20.50;;;6.00;99.90;;;;;;10324937;28;20304;-85
2022/04/06 12:20:31;;;;;;;29.93;18.53;;;6.10;99.90;;;;;;10323665;28;20206;-87
2022/04/06 12:25:56;;;;;;;26.10;17.43;;;6.20;99.90;;;;;;10339244;28;20203;-86
2022/04/06 12:31:31;;;;;;;33.13;20.30;;;6.30;99.90;;;;;;10360266;28;20233;-85
2022/04/06 12:36:52;;;;;;;26.43;18.50;;;6.40;99.90;;;;;;10379761;28;20540;-80
2022/04/06 12:42:16;;;;;;;23.17;14.80;;;6.60;99.90;;;;;;10340985;28;20280;-78
2022/04/06 12:47:38;;;;;;;18.33;13.87;;;6.70;99.90;;;;;;10334987;28;20200;-79
2022/04/06 12:53:08;;;;;;;16.00;11.87;;;6.80;99.90;;;;;;10353004;28;20196;-84
2022/04/06 12:58:29;;;;;;;19.17;13.10;;;6.90;99.90;;;;;;10339655;28;20228;-85
2022/04/06 13:03:59;;;;;;;18.43;12.80;;;7.10;99.90;;;;;;10326116;28;20279;-80
2022/04/06 13:09:21;;;;;;;19.63;12.30;;;7.20;99.90;;;;;;10338665;28;20239;-87
2022/04/06 13:14:43;;;;;;;37.33;24.47;;;7.30;99.90;;;;;;10326019;28;20223;-83
2022/04/06 13:20:06;;;;;;;17.03;14.20;;;7.30;99.90;;;;;;10337881;28;20384;-81
2022/04/06 13:25:27;;;;;;;15.77;11.40;;;7.50;99.90;;;;;;10308892;28;20241;-84
2022/04/06 13:30:51;;;;;;;15.90;12.50;;;7.60;99.90;;;;;;10368593;28;20223;-84
2022/04/06 13:36:12;;;;;;;23.33;14.37;;;7.80;99.90;;;;;;10323412;28;20228;-85
2022/04/06 13:41:34;;;;;;;34.00;19.73;;;7.80;99.90;;;;;;10324408;28;20310;-84
2022/04/06 13:46:58;;;;;;;27.97;16.73;;;7.90;99.90;;;;;;10340394;28;20566;-87
2022/04/06 13:52:19;;;;;;;28.30;17.17;;;7.90;99.90;;;;;;10339212;28;20219;-90
2022/04/06 13:57:41;;;;;;;23.07;19.03;;;8.00;99.90;;;;;;10340250;28;20248;-78
2022/04/06 14:03:03;;;;;;;19.80;15.80;;;7.90;99.90;;;;;;10355392;28;20372;-76
2022/04/06 14:08:27;;;;;;;21.87;17.33;;;7.90;99.90;;;;;;10366394;28;20208;-86
2022/04/06 14:13:54;;;;;;;24.40;18.13;;;8.00;99.90;;;;;;10354978;28;20201;-86
2022/04/06 14:19:15;;;;;;;32.10;20.07;;;8.00;99.90;;;;;;10336271;28;20232;-80
2022/04/06 14:25:14;;;;;;;24.37;16.37;;;8.10;99.90;;;;;;10352663;28;20510;-81
2022/04/06 14:30:19;;;;;;;21.70;14.10;;;8.10;99.90;;;;;;10388526;28;20258;-79
2022/04/06 14:35:41;;;;;;;18.93;15.17;;;8.30;99.90;;;;;;10338723;28;20239;-80
2022/04/06 14:41:05;;;;;;;23.07;17.97;;;8.30;99.90;;;;;;10365725;28;20266;-84
2022/04/06 14:46:26;;;;;;;30.03;18.83;;;8.40;99.90;;;;;;10308161;28;20383;-83
2022/04/06 14:51:50;;;;;;;28.80;18.73;;;8.40;99.90;;;;;;10304104;28;20216;-86
2022/04/06 14:57:12;;;;;;;28.20;15.53;;;8.40;99.90;;;;;;10307121;28;20274;-78
2022/04/06 15:02:34;;;;;;;22.07;14.47;;;8.50;99.90;;;;;;10295322;28;20197;-80
2022/04/06 15:07:56;;;;;;;17.27;13.07;;;8.50;99.90;;;;;;10258970;28;20392;-84
2022/04/06 15:13:17;;;;;;;15.80;13.17;;;8.50;99.90;;;;;;10246304;29;20509;-87
2022/04/06 15:18:38;;;;;;;29.37;17.30;;;8.60;99.90;;;;;;10242155;29;20238;-82
2022/04/06 15:24:01;;;;;;;15.73;11.97;;;8.40;99.90;;;;;;10243206;29;20270;-86
2022/04/06 15:29:23;;;;;;;15.77;11.60;;;8.40;99.90;;;;;;10244738;29;20203;-85
2022/04/06 15:40:24;;;;;;;14.80;12.20;;;8.40;99.90;;;;;;10243126;29;20192;-83
2022/04/06 15:45:45;;;;;;;14.23;11.97;;;8.40;99.90;;;;;;10279772;29;20259;-84
2022/04/06 15:51:06;;;;;;;17.23;12.50;;;8.30;99.90;;;;;;10288699;29;20192;-80
2022/04/06 15:56:30;;;;;;;19.53;13.10;;;8.30;99.90;;;;;;10307192;28;20214;-83
2022/04/06 16:01:52;;;;;;;21.90;14.90;;;8.20;99.90;;;;;;10291505;28;20200;-86
2022/04/06 16:07:13;;;;;;;20.77;13.60;;;8.20;99.90;;;;;;10280953;28;20451;-86
2022/04/06 16:12:35;;;;;;;17.67;12.27;;;8.30;99.90;;;;;;10278693;29;20202;-82
2022/04/06 16:17:58;;;;;;;20.87;13.80;;;8.30;99.90;;;;;;10293389;29;20216;-85
2022/04/06 16:23:20;;;;;;;19.33;13.57;;;8.20;99.90;;;;;;10286759;29;20197;-85
2022/04/06 16:28:45;;;;;;;18.53;14.93;;;8.20;99.90;;;;;;10294829;28;20205;-84
2022/04/06 16:34:06;;;;;;;26.80;17.27;;;8.20;99.90;;;;;;10318494;28;20204;-85
2022/04/06 16:39:29;;;;;;;23.50;16.07;;;8.20;99.90;;;;;;10296148;28;20198;-84
2022/04/06 16:44:50;;;;;;;23.30;15.90;;;8.20;99.90;;;;;;10263972;29;20334;-84
2022/04/06 16:55:52;;;;;;;20.33;14.97;;;8.20;99.90;;;;;;10279525;29;20238;-85
2022/04/06 17:01:13;;;;;;;24.33;15.43;;;8.30;99.90;;;;;;10254833;29;20274;-82
2022/04/06 17:06:37;;;;;;;19.20;13.93;;;8.30;99.90;;;;;;10263814;29;20204;-85
2022/04/06 17:11:59;;;;;;;21.20;14.33;;;8.20;99.90;;;;;;10237342;29;20434;-82
2022/04/06 17:17:20;;;;;;;24.73;16.63;;;8.20;99.90;;;;;;10223600;29;20554;-84
2022/04/06 17:22:42;;;;;;;22.03;16.53;;;8.20;99.90;;;;;;10237647;29;20194;-86
2022/04/06 17:28:04;;;;;;;25.27;18.00;;;8.30;99.90;;;;;;10256887;28;20221;-83
2022/04/06 17:33:27;;;;;;;22.27;16.30;;;8.20;99.90;;;;;;10316684;28;20204;-85
2022/04/06 17:38:48;;;;;;;24.03;15.57;;;8.20;99.90;;;;;;10298385;28;20232;-85
2022/04/06 17:44:09;;;;;;;24.13;16.77;;;8.20;99.90;;;;;;10299678;28;20232;-83
2022/04/06 17:49:30;;;;;;;25.30;17.67;;;8.30;99.90;;;;;;10315165;28;20211;-85
2022/04/06 17:54:52;;;;;;;28.43;18.90;;;8.20;99.90;;;;;;10315856;28;20221;-79
2022/04/06 18:00:14;;;;;;;26.97;16.00;;;8.20;99.90;;;;;;10285182;28;20404;-86
2022/04/06 18:05:35;;;;;;;58.93;30.70;;;8.10;99.90;;;;;;10298401;28;20226;-78
2022/04/06 18:16:41;;;;;;;29.50;18.90;;;8.10;99.90;;;;;;10315379;28;20222;-78
2022/04/06 18:22:03;;;;;;;43.47;23.43;;;8.20;99.90;;;;;;10300943;28;20194;-82
2022/04/06 18:27:24;;;;;;;41.17;22.33;;;8.20;99.90;;;;;;10320733;28;20243;-81
2022/04/06 18:32:46;;;;;;;58.10;42.80;;;8.20;99.90;;;;;;10355259;28;20196;-84
2022/04/06 18:38:08;;;;;;;33.87;22.50;;;8.20;99.90;;;;;;10324043;28;20230;-85
2022/04/06 18:43:30;;;;;;;26.80;15.50;;;8.10;99.90;;;;;;10285118;28;20345;-85
2022/04/06 18:48:51;;;;;;;25.20;16.13;;;8.20;99.90;;;;;;10316467;28;20205;-87
2022/04/06 18:54:15;;;;;;;28.20;16.50;;;8.10;99.90;;;;;;10295471;28;20221;-86
2022/04/06 18:59:36;;;;;;;25.13;15.53;;;8.10;99.90;;;;;;10308709;28;20209;-85
2022/04/06 19:04:58;;;;;;;28.70;15.73;;;8.10;99.90;;;;;;10308050;28;20205;-85
2022/04/06 19:10:19;;;;;;;22.77;14.43;;;8.20;99.90;;;;;;10321394;28;20203;-86
2022/04/06 19:15:42;;;;;;;25.97;15.23;;;8.10;99.90;;;;;;10321599;28;20235;-84
2022/04/06 19:21:03;;;;;;;22.50;14.07;;;8.20;99.90;;;;;;10307327;28;20282;-82
2022/04/06 19:26:27;;;;;;;23.37;15.30;;;8.10;99.90;;;;;;10321520;28;20207;-86
2022/04/06 19:31:48;;;;;;;21.33;14.53;;;8.20;99.90;;;;;;10281664;28;20204;-86
2022/04/06 19:37:11;;;;;;;33.67;19.93;;;8.10;99.90;;;;;;10289856;28;20312;-78
2022/04/06 19:42:37;;;;;;;32.60;18.50;;;8.10;99.90;;;;;;10290978;28;20240;-86
2022/04/06 19:48:00;;;;;;;28.90;16.07;;;8.00;99.90;;;;;;10274923;28;20531;-85
2022/04/06 19:53:22;;;;;;;37.37;19.60;;;8.10;99.90;;;;;;10320458;28;20198;-86
2022/04/06 19:58:43;;;;;;;32.70;16.03;;;8.00;99.90;;;;;;10262858;29;20228;-83
2022/04/06 20:04:07;;;;;;;26.67;14.57;;;8.10;99.90;;;;;;10255272;28;20222;-83
2022/04/06 20:09:28;;;;;;;40.43;20.63;;;8.10;99.90;;;;;;10319861;28;20265;-87
2022/04/06 20:14:50;;;;;;;26.80;14.57;;;8.00;99.90;;;;;;10305091;28;20289;-86
2022/04/06 20:20:13;;;;;;;22.57;14.20;;;8.00;99.90;;;;;;10318948;28;20515;-85
2022/04/06 20:25:35;;;;;;;20.77;13.53;;;8.00;99.90;;;;;;10319831;28;20201;-86
2022/04/06 20:30:58;;;;;;;33.20;17.33;;;8.00;99.90;;;;;;10352739;28;20273;-86
2022/04/06 20:36:23;;;;;;;25.43;13.83;;;8.00;99.90;;;;;;10341780;28;20460;-86
2022/04/06 20:41:46;;;;;;;30.07;14.33;;;8.00;99.90;;;;;;10344303;28;20253;-84
2022/04/06 20:47:09;;;;;;;14.93;10.77;;;8.00;99.90;;;;;;10372644;28;20201;-80
2022/04/06 20:52:30;;;;;;;18.07;11.50;;;8.00;99.90;;;;;;10355987;28;20220;-86
2022/04/06 20:57:51;;;;;;;22.83;13.47;;;8.00;99.90;;;;;;10361487;28;20225;-80
2022/04/06 21:03:16;;;;;;;16.17;10.23;;;8.00;99.90;;;;;;10351134;28;20279;-85
2022/04/06 21:08:52;;;;;;;15.87;10.30;;;8.00;99.90;;;;;;10261269;29;20198;-86
2022/04/06 21:14:13;;;;;;;25.20;12.33;;;8.00;99.90;;;;;;10263016;29;20194;-86
2022/04/06 21:19:35;;;;;;;14.53;9.60;;;8.00;99.90;;;;;;10274654;28;20228;-86
2022/04/06 21:24:56;;;;;;;19.17;10.90;;;8.00;99.90;;;;;;10286932;28;20193;-84
2022/04/06 21:30:18;;;;;;;20.87;11.67;;;8.00;99.90;;;;;;10346156;28;20198;-86
2022/04/06 21:35:39;;;;;;;17.83;11.10;;;8.00;99.90;;;;;;10339862;28;20225;-87
2022/04/06 21:41:00;;;;;;;18.90;10.23;;;7.90;99.90;;;;;;10356954;28;20188;-86
2022/04/06 21:46:21;;;;;;;27.20;12.53;;;7.90;99.90;;;;;;10356615;28;20205;-86
2022/04/06 21:51:42;;;;;;;22.80;13.37;;;7.90;99.90;;;;;;10307920;28;20246;-88
2022/04/06 21:57:04;;;;;;;21.03;11.07;;;7.90;99.90;;;;;;10272264;28;20228;-86
2022/04/06 22:02:25;;;;;;;20.17;10.07;;;7.90;99.90;;;;;;10301517;28;20278;-86
2022/04/06 22:07:47;;;;;;;18.03;9.17;;;7.90;99.90;;;;;;10315829;28;20514;-85
2022/04/06 22:13:09;;;;;;;16.37;9.50;;;7.80;99.90;;;;;;10285382;28;20207;-88
2022/04/06 22:18:31;;;;;;;26.33;12.77;;;7.80;99.90;;;;;;10301109;28;20227;-87
2022/04/06 22:23:52;;;;;;;24.37;9.67;;;7.80;99.90;;;;;;10279151;28;20210;-86
2022/04/06 22:29:14;;;;;;;15.67;8.40;;;7.90;99.90;;;;;;10309765;28;20197;-85
2022/04/06 22:34:36;;;;;;;16.03;7.63;;;7.80;99.90;;;;;;10350241;28;20200;-85
2022/04/06 22:39:57;;;;;;;12.47;8.00;;;7.80;99.90;;;;;;10346606;28;20204;-87
2022/04/06 22:45:19;;;;;;;17.60;7.80;;;7.70;99.90;;;;;;10297634;28;20434;-86
2022/04/06 22:50:40;;;;;;;15.43;8.40;;;7.80;99.90;;;;;;10256668;29;20203;-85
2022/04/06 22:56:01;;;;;;;16.43;7.87;;;7.70;99.90;;;;;;10257665;28;20234;-84
2022/04/06 23:01:23;;;;;;;14.83;8.00;;;7.80;99.90;;;;;;10242424;29;20195;-85
2022/04/06 23:06:44;;;;;;;22.17;8.23;;;7.80;99.90;;;;;;10227831;29;20531;-85
2022/04/06 23:12:08;;;;;;;17.77;7.57;;;7.80;99.90;;;;;;10227953;29;20203;-86
2022/04/06 23:17:29;;;;;;;11.57;6.40;;;7.80;99.90;;;;;;10227090;29;20287;-88
2022/04/06 23:22:50;;;;;;;13.23;6.97;;;7.80;99.90;;;;;;10241898;29;20195;-85
2022/04/06 23:28:12;;;;;;;9.20;5.80;;;7.80;99.90;;;;;;10252045;29;20383;-83
2022/04/06 23:33:35;;;;;;;11.93;6.10;;;7.80;99.90;;;;;;10266754;29;20396;-87
2022/04/06 23:38:56;;;;;;;15.83;7.53;;;7.80;99.90;;;;;;10286874;28;20218;-82
2022/04/06 23:44:17;;;;;;;12.00;7.00;;;7.70;99.90;;;;;;10332802;28;20240;-84
2022/04/06 23:49:39;;;;;;;10.90;5.80;;;7.70;99.90;;;;;;10313033;28;20208;-87
2022/04/06 23:55:00;;;;;;;8.27;6.00;;;7.70;99.90;;;;;;10360892;28;20453;-86
